Time;durP1;ratioP1;P1;durP2;ratioP2;P2;SDS_P1;SDS_P2;PMS_P1;PMS_P2;Temp;Humidity;BMP_temperature;BMP_pressure;BME280_temperature;BME280_humidity;BME280_pressure;Samples;Min_cycle;Max_cycle;Signal;HPM_P1;HPM_P2
2020/12/05 00:02:18;;;;;;;40.97;24.58;;;;;;;1.26;90.73;98967.91;5015198;28;20099;-48
2020/12/05 00:04:45;;;;;;;43.03;24.73;;;;;;;1.13;91.54;98956.53;5015514;28;20042;-45
2020/12/05 00:07:12;;;;;;;43.13;25.02;;;;;;;1.22;90.94;98956.00;5017636;28;20060;-46
2020/12/05 00:09:38;;;;;;;43.70;25.35;;;;;;;1.00;91.80;98950.19;5017849;28;20099;-48
2020/12/05 00:12:06;;;;;;;42.95;26.20;;;;;;;0.86;92.71;98940.44;5016274;28;20046;-47
2020/12/05 00:14:33;;;;;;;42.05;25.95;;;;;;;0.81;92.84;98947.81;5018319;28;20034;-51
2020/12/05 00:17:00;;;;;;;47.55;26.63;;;;;;;0.76;92.84;98950.19;5015844;28;20061;-45
2020/12/05 00:19:26;;;;;;;54.08;28.90;;;;;;;0.75;92.79;98957.69;5016965;28;20057;-48
2020/12/05 00:21:55;;;;;;;48.85;27.75;;;;;;;0.86;92.44;98958.91;5018172;28;20045;-45
2020/12/05 00:24:22;;;;;;;45.10;25.67;;;;;;;1.09;92.06;98963.91;5018403;28;20046;-51
2020/12/05 00:26:53;;;;;;;50.15;28.05;;;;;;;0.87;91.78;98972.38;5018686;28;20050;-50
2020/12/05 00:29:20;;;;;;;47.65;27.75;;;;;;;0.72;92.70;98957.56;5018410;28;20050;-47
2020/12/05 00:31:51;;;;;;;47.95;26.63;;;;;;;1.15;91.42;98949.84;5018550;28;20073;-50
2020/12/05 00:34:19;;;;;;;46.05;27.65;;;;;;;1.06;90.78;98958.75;5018417;28;20371;-52
2020/12/05 00:36:45;;;;;;;50.47;29.00;;;;;;;0.89;91.77;98959.03;5018698;28;20501;-52
2020/12/05 00:39:12;;;;;;;45.45;26.17;;;;;;;1.00;91.11;98960.25;5021075;28;20109;-48
2020/12/05 00:41:38;;;;;;;49.03;27.80;;;;;;;0.64;92.44;98951.38;5022081;28;20045;-51
2020/12/05 00:44:05;;;;;;;47.25;28.35;;;;;;;0.51;93.95;98947.56;5020124;28;20049;-49
2020/12/05 00:46:32;;;;;;;50.40;28.13;;;;;;;0.48;93.73;98942.41;5018797;28;20096;-49
2020/12/05 00:48:58;;;;;;;48.55;27.23;;;;;;;0.57;93.61;98942.75;5019391;28;20045;-48
2020/12/05 00:51:24;;;;;;;50.78;28.42;;;;;;;0.49;93.93;98942.47;5022259;28;20115;-49
2020/12/05 00:53:51;;;;;;;50.42;29.55;;;;;;;0.37;94.17;98943.66;5021871;28;20049;-48
2020/12/05 00:56:20;;;;;;;51.30;29.45;;;;;;;0.47;93.95;98943.22;5010252;28;20697;-50
2020/12/05 00:58:47;;;;;;;55.42;28.95;;;;;;;0.47;94.02;98944.06;5009750;28;20120;-49
2020/12/05 01:01:15;;;;;;;52.03;28.83;;;;;;;0.48;94.35;98958.38;5009659;28;20092;-49
2020/12/05 01:03:42;;;;;;;50.13;28.00;;;;;;;0.44;94.51;98960.72;5009810;28;20041;-50
2020/12/05 01:06:15;;;;;;;48.70;27.98;;;;;;;0.48;94.60;98962.56;5009636;28;20074;-50
2020/12/05 01:08:43;;;;;;;51.47;28.85;;;;;;;0.36;94.63;98962.06;5009343;28;20492;-52
2020/12/05 01:11:14;;;;;;;47.65;27.67;;;;;;;0.39;94.80;98975.66;5009423;28;20112;-52
2020/12/05 01:13:41;;;;;;;48.42;27.70;;;;;;;0.35;94.79;98967.91;5009248;28;20045;-50
2020/12/05 01:16:18;;;;;;;51.25;28.20;;;;;;;0.46;94.41;98970.06;5009286;28;20521;-45
2020/12/05 01:18:45;;;;;;;54.60;28.58;;;;;;;0.31;94.92;98961.91;5009060;28;20049;-47
2020/12/05 01:21:14;;;;;;;50.55;29.25;;;;;;;0.28;95.23;98966.84;5009038;28;20099;-51
2020/12/05 01:23:41;;;;;;;47.83;27.48;;;;;;;0.41;94.40;98966.47;5009201;28;20543;-54
2020/12/05 01:26:08;;;;;;;54.53;29.45;;;;;;;0.17;95.52;98961.38;5009160;28;20042;-46
2020/12/05 01:28:35;;;;;;;52.08;28.38;;;;;;;0.21;95.88;98964.88;5017138;28;20042;-48
2020/12/05 01:31:03;;;;;;;49.28;26.73;;;;;;;0.25;95.70;98965.06;5018583;28;20513;-51
2020/12/05 01:33:31;;;;;;;48.97;28.20;;;;;;;0.23;95.75;98968.28;5019867;28;20061;-52
2020/12/05 01:35:58;;;;;;;52.92;29.30;;;;;;;0.19;96.13;98967.34;5019055;28;20420;-50
2020/12/05 01:38:25;;;;;;;45.90;26.02;;;;;;;0.25;95.63;98959.16;5017405;28;20049;-51
2020/12/05 01:40:53;;;;;;;52.22;28.70;;;;;;;0.11;96.23;98971.22;5017555;28;20567;-49
2020/12/05 01:43:20;;;;;;;55.45;28.50;;;;;;;0.14;95.99;98961.28;5017057;28;20449;-49
2020/12/05 01:45:48;;;;;;;51.88;28.98;;;;;;;0.14;96.20;98962.91;5016886;28;20057;-49
2020/12/05 01:48:19;;;;;;;54.55;29.00;;;;;;;0.17;96.36;98968.06;5019620;28;20490;-47
2020/12/05 01:50:47;;;;;;;53.55;29.00;;;;;;;0.19;95.84;98958.94;5020148;28;20069;-45
2020/12/05 01:53:16;;;;;;;53.55;27.92;;;;;;;0.10;96.44;98963.59;5017597;28;20521;-47
2020/12/05 01:55:47;;;;;;;47.70;26.77;;;;;;;0.13;95.57;98974.63;5017005;28;20559;-46
2020/12/05 01:58:14;;;;;;;52.53;27.88;;;;;;;0.04;96.42;98976.78;5019534;28;20061;-46
2020/12/05 02:00:43;;;;;;;52.38;28.02;;;;;;;0.01;96.74;98958.22;5020229;28;20398;-49
2020/12/05 02:03:13;;;;;;;47.78;26.95;;;;;;;0.16;96.76;98953.78;5017318;28;20041;-46
2020/12/05 02:06:23;;;;;;;53.58;27.10;;;;;;;0.01;96.69;98949.00;5016641;28;20505;-47
2020/12/05 02:09:14;;;;;;;54.72;28.27;;;;;;;-0.02;96.87;98943.84;5016027;28;20112;-50
2020/12/05 02:11:44;;;;;;;50.65;26.80;;;;;;;0.02;96.93;98940.66;5016060;28;20460;-46
2020/12/05 02:14:14;;;;;;;50.05;26.75;;;;;;;0.12;96.63;98956.97;5019124;28;20045;-45
2020/12/05 02:16:40;;;;;;;54.55;27.95;;;;;;;0.01;96.97;98959.06;5019986;28;20042;-47
2020/12/05 02:19:12;;;;;;;50.50;27.50;;;;;;;0.33;96.13;98947.72;5017378;28;20583;-49
2020/12/05 02:21:40;;;;;;;49.42;27.05;;;;;;;0.49;95.50;98944.13;5016523;28;20045;-48
2020/12/05 02:24:09;;;;;;;49.75;28.27;;;;;;;0.33;95.30;98957.81;5018267;28;20116;-45
2020/12/05 02:26:36;;;;;;;47.25;25.50;;;;;;;0.41;95.25;98965.63;5019609;28;20196;-50
2020/12/05 02:29:03;;;;;;;52.13;27.45;;;;;;;0.29;95.67;98963.53;5018206;28;20088;-45
2020/12/05 02:31:30;;;;;;;45.03;26.67;;;;;;;0.43;95.63;98969.94;5016476;28;20050;-51
2020/12/05 02:33:56;;;;;;;49.42;26.42;;;;;;;0.45;95.30;98967.47;5016798;28;20131;-46
2020/12/05 02:36:23;;;;;;;46.72;26.20;;;;;;;0.32;95.02;98961.09;5020320;28;20123;-45
2020/12/05 02:39:00;;;;;;;51.17;27.10;;;;;;;0.44;95.21;98963.22;5019657;28;20698;-52
2020/12/05 02:41:28;;;;;;;46.50;25.63;;;;;;;0.63;95.08;98952.19;5016455;28;20045;-45
2020/12/05 02:43:54;;;;;;;50.97;27.65;;;;;;;0.34;95.12;98949.44;5017110;28;20073;-48
2020/12/05 02:46:21;;;;;;;47.35;25.30;;;;;;;0.42;95.29;98948.09;5019295;28;20126;-52
2020/12/05 02:48:48;;;;;;;48.92;27.50;;;;;;;0.74;94.10;98950.94;5019391;28;20042;-48
2020/12/05 02:51:14;;;;;;;47.35;26.30;;;;;;;0.52;94.14;98954.31;5016557;28;20469;-48
2020/12/05 02:53:40;;;;;;;43.03;25.23;;;;;;;0.37;95.08;98956.25;5016105;28;20046;-48
2020/12/05 02:56:07;;;;;;;47.67;26.17;;;;;;;0.58;94.56;98962.09;5018006;28;20042;-47
2020/12/05 02:58:33;;;;;;;44.92;25.10;;;;;;;0.45;94.36;98963.28;5018952;28;20049;-50
2020/12/05 03:01:00;;;;;;;48.17;26.08;;;;;;;0.18;95.38;98962.22;5017884;28;20045;-54
2020/12/05 03:03:26;;;;;;;47.65;25.90;;;;;;;0.21;95.59;98960.69;5016179;28;20556;-50
2020/12/05 03:05:53;;;;;;;42.35;24.23;;;;;;;0.29;95.44;98960.16;5016315;28;20045;-51
2020/12/05 03:08:19;;;;;;;44.85;25.02;;;;;;;0.28;95.20;98963.44;5019105;28;20045;-45
2020/12/05 03:10:45;;;;;;;42.72;23.77;;;;;;;0.03;95.64;98974.22;5019120;28;20585;-50
2020/12/05 03:13:12;;;;;;;49.20;26.23;;;;;;;0.12;95.92;98982.13;5016087;28;20045;-48
2020/12/05 03:15:38;;;;;;;45.28;25.60;;;;;;;-0.07;96.69;98983.91;5015122;28;20520;-50
2020/12/05 03:18:04;;;;;;;49.03;25.10;;;;;;;0.00;97.19;98980.00;5017167;28;20116;-51
2020/12/05 03:20:31;;;;;;;42.35;25.30;;;;;;;0.13;96.29;98978.81;5019155;28;20387;-50
2020/12/05 03:22:57;;;;;;;48.13;27.00;;;;;;;-0.11;96.80;98976.19;5018229;28;20448;-49
2020/12/05 03:25:24;;;;;;;48.35;25.08;;;;;;;0.03;96.93;98971.69;5015944;28;20575;-45
2020/12/05 03:27:58;;;;;;;48.70;27.45;;;;;;;-0.05;97.29;98972.28;5015852;28;20038;-51
2020/12/05 03:30:25;;;;;;;46.83;26.63;;;;;;;0.03;96.60;98969.19;5015778;28;20042;-48
2020/12/05 03:32:53;;;;;;;47.63;25.92;;;;;;;-0.12;97.03;98956.88;5016215;28;20129;-51
2020/12/05 03:35:29;;;;;;;49.85;25.88;;;;;;;-0.17;97.34;98958.34;5019187;28;20065;-50
2020/12/05 03:37:56;;;;;;;51.97;27.38;;;;;;;-0.25;98.10;98955.50;5018792;28;20042;-46
2020/12/05 03:40:23;;;;;;;53.55;28.65;;;;;;;-0.10;98.12;98956.13;5015974;28;20049;-49
2020/12/05 03:42:59;;;;;;;56.88;29.58;;;;;;;-0.08;97.36;98933.56;5016086;28;20097;-49
2020/12/05 03:45:26;;;;;;;53.80;28.25;;;;;;;-0.17;98.05;98931.53;5015758;28;20402;-52
2020/12/05 03:48:01;;;;;;;51.00;28.35;;;;;;;0.04;97.67;98944.06;5015256;28;20470;-50
2020/12/05 03:50:28;;;;;;;55.15;28.17;;;;;;;0.02;96.53;98957.41;5018842;28;20063;-49
2020/12/05 03:53:00;;;;;;;50.30;27.13;;;;;;;-0.10;97.14;98952.75;5018451;28;20046;-47
2020/12/05 03:55:37;;;;;;;48.13;26.20;;;;;;;0.14;96.92;98943.66;5016479;28;20129;-51
2020/12/05 03:58:06;;;;;;;49.83;26.52;;;;;;;0.01;96.98;98933.91;5018881;28;20045;-48
2020/12/05 04:00:41;;;;;;;52.70;27.88;;;;;;;-0.03;97.56;98927.03;5022920;28;20092;-51
2020/12/05 04:03:10;;;;;;;49.42;26.77;;;;;;;0.02;97.49;98887.81;5020823;28;20056;-48
2020/12/05 04:05:37;;;;;;;49.10;26.90;;;;;;;0.24;97.41;98884.47;5019965;28;20042;-53
2020/12/05 04:08:04;;;;;;;47.25;25.83;;;;;;;0.34;96.11;98885.66;5021298;28;20050;-45
2020/12/05 04:10:40;;;;;;;45.45;25.30;;;;;;;0.30;95.87;98881.31;5022947;28;20064;-51
2020/12/05 04:13:17;;;;;;;49.47;27.23;;;;;;;0.22;96.23;98860.88;5020830;28;20054;-45
2020/12/05 04:15:46;;;;;;;48.08;26.48;;;;;;;0.28;96.52;98845.13;5019367;28;20526;-45
2020/12/05 04:18:15;;;;;;;43.72;24.45;;;;;;;0.40;95.80;98831.34;5021942;28;20057;-45
2020/12/05 04:20:52;;;;;;;44.15;25.85;;;;;;;0.43;95.38;98838.16;5022564;28;20515;-47
2020/12/05 04:23:19;;;;;;;47.25;26.75;;;;;;;0.44;95.25;98829.81;5019104;28;20405;-45
2020/12/05 04:25:50;;;;;;;47.15;26.05;;;;;;;0.56;94.86;98827.72;5018948;28;20054;-49
2020/12/05 04:28:16;;;;;;;47.65;25.98;;;;;;;0.75;93.82;98809.06;5022518;28;20059;-48
2020/12/05 04:30:51;;;;;;;44.72;24.75;;;;;;;0.70;93.56;98808.06;5024297;28;20111;-48
2020/12/05 04:33:30;;;;;;;45.67;25.92;;;;;;;0.77;93.67;98823.41;5011470;28;20049;-49
2020/12/05 04:36:04;;;;;;;45.17;23.60;;;;;;;0.82;93.31;98832.78;5011615;28;20052;-46
2020/12/05 04:38:33;;;;;;;39.80;23.60;;;;;;;0.69;93.67;98824.84;5010926;28;20046;-45
2020/12/05 04:41:01;;;;;;;41.40;23.83;;;;;;;0.68;94.24;98785.31;5010998;28;20049;-46
2020/12/05 04:43:28;;;;;;;42.75;24.73;;;;;;;0.83;93.68;98774.03;5011432;28;20053;-49
2020/12/05 04:45:56;;;;;;;40.22;24.13;;;;;;;1.06;92.42;98841.16;5010994;28;20042;-48
2020/12/05 04:48:24;;;;;;;43.30;23.35;;;;;;;1.00;91.88;98858.63;5006672;28;20062;-46
2020/12/05 04:50:53;;;;;;;41.60;23.42;;;;;;;1.08;92.19;98851.31;5010749;28;20099;-45
2020/12/05 04:53:22;;;;;;;41.75;24.67;;;;;;;0.96;92.78;98877.81;5010928;28;20095;-50
2020/12/05 04:55:52;;;;;;;42.75;24.27;;;;;;;0.93;92.79;98876.88;5010681;28;20097;-51
2020/12/05 04:58:22;;;;;;;38.38;22.55;;;;;;;0.86;92.37;98892.56;5014306;28;20049;-49
2020/12/05 05:03:27;;;;;;;39.95;22.63;;;;;;;1.04;92.49;98909.97;4962677;28;20126;-53
2020/12/05 05:05:57;;;;;;;38.47;22.85;;;;;;;1.22;91.74;98906.44;4960882;28;20581;-49
2020/12/05 05:08:25;;;;;;;36.60;22.10;;;;;;;1.06;91.93;98889.06;4944722;28;20050;-54
2020/12/05 05:11:09;;;;;;;38.13;22.13;;;;;;;1.05;91.84;98874.75;4944817;28;20043;-47
2020/12/05 05:13:49;;;;;;;43.80;21.92;;;;;;;1.11;91.46;98869.94;4960706;28;20090;-49
2020/12/05 05:16:16;;;;;;;39.20;22.10;;;;;;;1.21;91.21;98889.59;4963707;28;20125;-53
2020/12/05 05:18:43;;;;;;;41.45;22.08;;;;;;;1.16;91.14;98890.25;4963755;28;20051;-50
2020/12/05 05:21:31;;;;;;;37.22;21.35;;;;;;;1.23;91.36;98893.00;4961105;28;20047;-45
2020/12/05 05:24:00;;;;;;;34.38;20.23;;;;;;;1.12;91.39;98896.84;4960771;28;20039;-49
2020/12/05 05:26:27;;;;;;;35.50;21.15;;;;;;;0.98;91.88;98903.94;4979469;28;20093;-54
2020/12/05 05:28:53;;;;;;;31.73;19.65;;;;;;;1.04;91.74;98904.94;4982935;28;20057;-49
2020/12/05 05:31:32;;;;;;;33.40;20.15;;;;;;;1.41;90.24;98902.00;4979539;28;20066;-52
2020/12/05 05:33:58;;;;;;;32.28;19.83;;;;;;;1.28;90.19;98905.75;4980482;28;20050;-52
2020/12/05 05:36:28;;;;;;;34.40;20.88;;;;;;;0.84;91.54;98922.75;4983293;28;20043;-52
2020/12/05 05:39:11;;;;;;;35.13;20.67;;;;;;;0.77;92.03;98959.44;4978590;28;20038;-52
2020/12/05 05:41:39;;;;;;;32.40;19.02;;;;;;;0.70;92.47;98969.25;4979090;28;20507;-47
2020/12/05 05:44:11;;;;;;;35.95;19.85;;;;;;;0.47;93.44;98965.88;4981104;28;20175;-50
2020/12/05 05:46:42;;;;;;;37.50;21.52;;;;;;;0.20;94.73;98968.19;4982520;28;20038;-50
2020/12/05 05:49:13;;;;;;;40.53;21.90;;;;;;;0.11;95.49;98971.22;4980351;28;20195;-50
2020/12/05 05:51:44;;;;;;;39.67;21.58;;;;;;;0.08;96.13;98968.56;4978847;28;20050;-49
2020/12/05 05:54:16;;;;;;;37.05;22.83;;;;;;;0.04;96.24;98963.34;4981564;28;20051;-48
2020/12/05 05:57:02;;;;;;;39.38;22.65;;;;;;;0.00;97.08;98954.84;4982444;28;20046;-52
2020/12/05 05:59:37;;;;;;;45.80;24.98;;;;;;;-0.02;96.52;98948.88;4978837;28;20046;-49
2020/12/05 06:02:07;;;;;;;41.08;23.52;;;;;;;-0.09;97.08;98970.44;4980439;28;20039;-48
2020/12/05 06:04:45;;;;;;;41.42;22.50;;;;;;;0.15;96.96;98968.03;4982005;28;20050;-47
2020/12/05 06:07:16;;;;;;;41.60;24.05;;;;;;;-0.05;96.87;98981.44;4979637;28;20050;-48
2020/12/05 06:09:55;;;;;;;39.58;23.58;;;;;;;-0.02;97.36;99000.03;4978536;28;20231;-47
2020/12/05 06:12:24;;;;;;;44.53;24.92;;;;;;;0.06;97.46;99014.59;4978731;28;20503;-50
2020/12/05 06:14:52;;;;;;;41.67;23.77;;;;;;;0.03;97.43;99025.41;4978554;28;20058;-47
2020/12/05 06:17:20;;;;;;;41.65;22.70;;;;;;;0.03;97.37;99037.13;4978937;28;20054;-46
2020/12/05 06:19:49;;;;;;;38.90;22.48;;;;;;;0.13;96.54;99042.56;4978086;28;20105;-50
2020/12/05 06:22:40;;;;;;;39.90;23.05;;;;;;;0.07;97.18;99046.50;4981076;28;20061;-51
2020/12/05 06:25:14;;;;;;;39.25;22.05;;;;;;;0.29;96.63;99059.16;4979103;28;20042;-48
2020/12/05 06:27:48;;;;;;;37.58;21.55;;;;;;;0.12;96.63;99055.97;4978356;28;20570;-51
2020/12/05 06:30:15;;;;;;;38.95;22.55;;;;;;;0.07;96.69;99062.47;4981277;28;20046;-49
2020/12/05 06:32:48;;;;;;;38.97;22.77;;;;;;;0.08;97.25;99058.28;4981645;28;20050;-49
2020/12/05 06:35:17;;;;;;;40.72;23.02;;;;;;;-0.02;97.21;99045.34;4978415;28;20102;-51
2020/12/05 06:37:43;;;;;;;40.55;22.42;;;;;;;0.01;97.26;99048.78;4977932;28;20054;-52
2020/12/05 06:40:10;;;;;;;41.45;21.75;;;;;;;0.05;97.28;99045.56;4980236;28;20400;-54
2020/12/05 06:42:44;;;;;;;39.88;23.00;;;;;;;-0.09;97.55;99040.00;4981565;28;20065;-48
2020/12/05 06:45:26;;;;;;;37.05;21.92;;;;;;;-0.12;98.15;99033.19;4980956;28;20057;-50
2020/12/05 06:48:14;;;;;;;40.58;21.33;;;;;;;-0.08;98.47;99041.72;4986729;28;20043;-48
2020/12/05 06:50:45;;;;;;;39.83;22.27;;;;;;;-0.03;98.16;99045.28;4988389;28;20414;-44
2020/12/05 06:53:19;;;;;;;38.92;22.48;;;;;;;0.01;98.04;99047.13;4988906;28;20553;-42
2020/12/05 06:55:48;;;;;;;39.72;23.13;;;;;;;-0.14;98.60;99046.47;4988666;28;20038;-45
2020/12/05 06:58:14;;;;;;;39.65;22.48;;;;;;;0.11;98.20;99050.88;4986523;28;20100;-48
2020/12/05 07:00:50;;;;;;;40.40;21.42;;;;;;;0.02;98.78;99058.91;4988312;28;20046;-44
2020/12/05 07:03:28;;;;;;;39.72;23.67;;;;;;;0.08;98.76;99065.84;4986264;28;20050;-44
2020/12/05 07:05:57;;;;;;;36.80;21.48;;;;;;;0.20;98.22;99076.41;4967121;28;20034;-43
2020/12/05 07:08:35;;;;;;;35.72;21.02;;;;;;;0.52;97.83;99071.81;4988350;28;20101;-45
2020/12/05 07:11:15;;;;;;;36.63;21.33;;;;;;;0.81;97.63;99081.34;4988246;28;20374;-46
2020/12/05 07:13:45;;;;;;;32.08;20.13;;;;;;;0.74;96.59;99085.28;4988398;28;20449;-48
2020/12/05 07:16:26;;;;;;;34.17;19.40;;;;;;;1.30;94.51;99082.31;4988323;28;20092;-45
2020/12/05 07:19:00;;;;;;;32.10;19.17;;;;;;;1.05;94.53;99076.34;4984953;28;20084;-47
2020/12/05 07:21:28;;;;;;;35.10;20.30;;;;;;;1.02;95.26;99067.03;4984158;28;20351;-47
2020/12/05 07:23:55;;;;;;;34.45;19.17;;;;;;;0.97;96.00;99060.97;4977480;28;20108;-50
2020/12/05 07:26:22;;;;;;;33.65;21.02;;;;;;;1.13;95.76;99066.56;4987664;28;20104;-47
2020/12/05 07:28:53;;;;;;;34.15;19.20;;;;;;;1.16;95.34;99067.53;4988104;28;20058;-44
2020/12/05 07:31:20;;;;;;;28.48;18.58;;;;;;;1.41;95.64;99065.91;4966169;28;20057;-45
2020/12/05 07:33:47;;;;;;;36.60;19.60;;;;;;;1.28;95.78;99055.38;4968440;28;20066;-49
2020/12/05 07:36:17;;;;;;;31.92;19.80;;;;;;;1.76;94.13;99062.97;4968435;28;20117;-46
2020/12/05 07:38:46;;;;;;;26.60;17.88;;;;;;;1.62;93.62;99061.63;4958108;28;20130;-44
2020/12/05 07:41:18;;;;;;;30.02;18.92;;;;;;;1.64;94.23;99059.16;4961804;28;20046;-43
2020/12/05 07:43:46;;;;;;;27.20;18.17;;;;;;;1.84;94.35;99072.44;4958223;28;20105;-43
2020/12/05 07:46:15;;;;;;;29.73;16.77;;;;;;;1.97;93.37;99072.91;4956930;28;20047;-44
2020/12/05 07:48:43;;;;;;;26.15;16.58;;;;;;;2.02;93.44;99073.06;4947805;28;20077;-51
2020/12/05 07:51:15;;;;;;;26.27;16.70;;;;;;;2.20;92.87;99093.00;4976661;28;20046;-49
2020/12/05 07:53:44;;;;;;;23.88;15.55;;;;;;;2.64;92.02;99117.19;4975905;28;20491;-46
2020/12/05 07:56:21;;;;;;;24.30;16.30;;;;;;;2.64;90.87;99121.38;4985081;28;20054;-43
2020/12/05 07:58:56;;;;;;;24.65;15.98;;;;;;;2.60;91.25;99134.72;4976403;28;20077;-43
2020/12/05 08:01:52;;;;;;;25.95;15.98;;;;;;;2.87;90.96;99132.22;4978931;28;20054;-43
2020/12/05 08:04:46;;;;;;;21.98;15.23;;;;;;;2.81;90.62;99142.97;4975740;28;20061;-46
2020/12/05 08:07:23;;;;;;;22.45;14.95;;;;;;;3.11;89.40;99145.59;4980784;28;20116;-46
2020/12/05 08:09:51;;;;;;;20.17;14.27;;;;;;;3.06;90.85;99147.13;4975152;28;20551;-50
2020/12/05 08:12:43;;;;;;;20.75;14.50;;;;;;;3.42;88.93;99157.50;4962955;28;20054;-45
2020/12/05 08:15:18;;;;;;;23.88;14.40;;;;;;;3.32;88.74;99153.81;4951971;28;20054;-47
2020/12/05 08:17:46;;;;;;;22.27;15.07;;;;;;;3.43;89.64;99143.19;4979734;28;20046;-45
2020/12/05 08:20:14;;;;;;;23.48;15.00;;;;;;;3.79;87.77;99133.22;4982297;28;20050;-47
2020/12/05 08:22:41;;;;;;;22.98;15.70;;;;;;;3.76;87.69;99150.88;4979386;28;20127;-48
2020/12/05 08:25:08;;;;;;;22.58;14.35;;;;;;;3.93;87.34;99151.31;4983644;28;20093;-45
2020/12/05 08:27:36;;;;;;;22.08;13.88;;;;;;;4.00;86.85;99153.19;4987398;28;20047;-44
2020/12/05 08:30:04;;;;;;;20.08;13.80;;;;;;;4.19;86.79;99155.41;4987209;28;20093;-45
2020/12/05 08:32:31;;;;;;;19.55;13.75;;;;;;;4.49;85.23;99177.31;4985432;28;20105;-45
2020/12/05 08:35:09;;;;;;;20.52;14.35;;;;;;;4.42;85.81;99190.63;4982736;28;20109;-44
2020/12/05 08:37:46;;;;;;;21.65;13.77;;;;;;;4.33;86.11;99214.03;4987518;28;20112;-43
2020/12/05 08:40:19;;;;;;;19.27;13.30;;;;;;;4.52;85.19;99218.75;4997859;28;20444;-46
2020/12/05 08:42:47;;;;;;;20.83;13.85;;;;;;;4.88;83.45;99222.19;4988028;28;20050;-43
2020/12/05 08:45:18;;;;;;;20.90;13.60;;;;;;;4.66;84.38;99233.47;4983371;28;20050;-43
2020/12/05 08:47:46;;;;;;;18.92;13.10;;;;;;;4.94;83.56;99235.88;4981860;28;20042;-50
2020/12/05 08:50:22;;;;;;;19.92;13.10;;;;;;;5.11;82.71;99254.06;4985683;28;20120;-44
2020/12/05 08:52:53;;;;;;;19.25;13.02;;;;;;;4.85;83.34;99256.81;4981041;28;20047;-45
2020/12/05 08:55:24;;;;;;;17.38;12.50;;;;;;;4.77;83.85;99247.28;4977762;28;20047;-45
2020/12/05 08:58:08;;;;;;;17.30;12.77;;;;;;;4.61;84.62;99230.81;4961271;28;20043;-48
2020/12/05 09:00:36;;;;;;;17.13;12.95;;;;;;;4.73;84.04;99218.47;4965857;28;20466;-47
2020/12/05 09:03:16;;;;;;;17.77;12.55;;;;;;;5.05;82.78;99208.25;4962563;28;20566;-43
2020/12/05 09:05:47;;;;;;;17.10;13.05;;;;;;;4.71;84.77;99215.03;4962416;28;20467;-49
2020/12/05 09:08:19;;;;;;;17.45;12.38;;;;;;;4.98;84.55;99225.00;4963895;28;20129;-46
2020/12/05 09:10:46;;;;;;;16.35;12.38;;;;;;;5.72;80.64;99235.13;4971952;28;20046;-43
2020/12/05 09:13:13;;;;;;;17.15;12.05;;;;;;;6.06;79.11;99264.69;4970799;28;20050;-47
2020/12/05 09:15:55;;;;;;;17.65;12.25;;;;;;;6.03;78.82;99289.19;4970483;28;20102;-45
2020/12/05 09:18:22;;;;;;;19.52;13.15;;;;;;;6.12;78.36;99324.94;4969806;28;20454;-46
2020/12/05 09:20:49;;;;;;;16.70;12.35;;;;;;;6.37;78.76;99336.47;4970659;28;20050;-49
2020/12/05 09:23:26;;;;;;;17.60;12.07;;;;;;;7.30;73.93;99332.28;4970503;28;20054;-44
2020/12/05 09:26:02;;;;;;;16.67;10.95;;;;;;;8.00;70.62;99332.53;4968921;28;20054;-50
2020/12/05 09:28:29;;;;;;;18.95;11.50;;;;;;;7.88;71.01;99336.59;4984691;28;20046;-45
2020/12/05 09:30:57;;;;;;;15.35;11.55;;;;;;;7.35;72.24;99354.47;4989618;28;20046;-43
2020/12/05 09:33:24;;;;;;;14.68;11.45;;;;;;;7.47;72.26;99347.84;4983464;28;20145;-49
2020/12/05 09:35:51;;;;;;;15.65;12.00;;;;;;;7.37;72.96;99352.78;4979398;28;20069;-46
2020/12/05 09:38:17;;;;;;;16.90;12.23;;;;;;;7.31;72.90;99344.19;4983411;28;20581;-47
2020/12/05 09:40:44;;;;;;;20.90;12.25;;;;;;;7.35;72.42;99344.28;4985719;28;20051;-47
2020/12/05 09:43:11;;;;;;;17.42;11.90;;;;;;;7.28;73.12;99352.63;4987953;28;20054;-43
2020/12/05 09:45:39;;;;;;;16.17;11.13;;;;;;;7.22;72.95;99344.03;4985145;28;20038;-45
2020/12/05 09:48:05;;;;;;;15.52;11.43;;;;;;;7.22;72.83;99342.34;4988303;28;20042;-47
2020/12/05 09:50:32;;;;;;;15.55;11.52;;;;;;;7.16;73.53;99344.75;4988516;28;20061;-46
2020/12/05 09:52:59;;;;;;;16.27;11.48;;;;;;;7.19;72.87;99338.88;4979508;28;20046;-49
2020/12/05 09:55:27;;;;;;;18.08;11.43;;;;;;;7.06;74.04;99355.63;4979002;28;20081;-47
2020/12/05 09:57:53;;;;;;;15.82;11.30;;;;;;;7.33;72.42;99371.38;4988791;28;20486;-45
2020/12/05 10:00:20;;;;;;;17.63;11.82;;;;;;;7.69;70.40;99374.53;4989793;28;20058;-45
2020/12/05 10:02:46;;;;;;;13.60;10.30;;;;;;;7.82;70.10;99362.00;4977831;28;20451;-43
2020/12/05 10:05:13;;;;;;;15.75;11.55;;;;;;;7.78;70.06;99379.78;4988116;28;20050;-42
2020/12/05 10:07:40;;;;;;;17.95;11.82;;;;;;;7.96;69.53;99389.38;4989016;28;20043;-47
2020/12/05 10:10:10;;;;;;;15.68;11.70;;;;;;;7.81;69.75;99393.41;4989055;28;20054;-46
2020/12/05 10:12:44;;;;;;;17.27;12.18;;;;;;;7.76;70.37;99394.16;4986786;28;20038;-46
2020/12/05 10:15:14;;;;;;;18.52;12.82;;;;;;;7.78;69.88;99425.63;4989085;28;22989;-44
2020/12/05 10:17:42;;;;;;;15.80;11.95;;;;;;;7.70;71.11;99427.19;4989033;28;20098;-43
2020/12/05 10:20:09;;;;;;;18.23;12.23;;;;;;;7.58;71.16;99433.81;4989239;28;20096;-43
2020/12/05 10:22:37;;;;;;;15.68;11.85;;;;;;;8.50;68.17;99453.09;4988804;28;20045;-48
2020/12/05 10:25:04;;;;;;;17.15;12.43;;;;;;;8.96;65.34;99463.91;4989070;28;20195;-47
2020/12/05 10:27:31;;;;;;;15.82;11.23;;;;;;;8.93;65.32;99457.09;4988748;28;20309;-46
2020/12/05 10:29:58;;;;;;;17.00;11.80;;;;;;;8.51;66.66;99426.78;4987045;28;20150;-43
2020/12/05 10:32:25;;;;;;;17.95;12.00;;;;;;;8.43;66.46;99453.00;4988935;28;20062;-48
2020/12/05 10:34:51;;;;;;;17.83;11.80;;;;;;;7.99;69.27;99460.78;4988788;28;20046;-44
2020/12/05 10:37:18;;;;;;;16.08;11.82;;;;;;;7.88;69.74;99474.22;4986619;28;20054;-44
2020/12/05 10:39:44;;;;;;;18.20;11.95;;;;;;;7.74;70.23;99469.72;4985468;28;20557;-48
2020/12/05 10:42:11;;;;;;;16.75;11.27;;;;;;;7.93;68.48;99437.75;4985662;28;20046;-50
2020/12/05 10:44:37;;;;;;;15.50;11.55;;;;;;;7.87;67.90;99428.34;4985275;28;20101;-46
2020/12/05 10:47:04;;;;;;;17.17;11.75;;;;;;;7.90;67.63;99413.97;4985601;28;20100;-45
2020/12/05 10:49:30;;;;;;;17.77;11.77;;;;;;;7.76;68.28;99410.31;4978993;28;20054;-48
2020/12/05 10:51:57;;;;;;;18.35;11.90;;;;;;;8.05;66.71;99415.88;4980458;28;20050;-45
2020/12/05 10:54:24;;;;;;;16.50;11.60;;;;;;;8.10;67.47;99418.50;4973184;28;20050;-45
2020/12/05 10:56:51;;;;;;;17.77;11.93;;;;;;;8.49;65.76;99414.81;4976476;28;20721;-45
2020/12/05 10:59:18;;;;;;;17.45;12.00;;;;;;;8.77;64.80;99409.22;4982828;28;20999;-45
2020/12/05 11:01:44;;;;;;;16.60;11.77;;;;;;;9.00;63.29;99406.09;4973216;28;20625;-49
2020/12/05 11:04:11;;;;;;;15.98;10.98;;;;;;;8.99;62.51;99409.47;4983575;28;20042;-45
2020/12/05 11:06:37;;;;;;;16.98;11.60;;;;;;;8.60;63.63;99406.47;4976578;28;20451;-48
2020/12/05 11:09:04;;;;;;;15.10;9.20;;;;;;;8.76;60.90;99424.53;4977351;28;20057;-49
2020/12/05 11:11:30;;;;;;;16.58;10.68;;;;;;;8.53;61.48;99414.88;4975890;28;20092;-46
2020/12/05 11:13:57;;;;;;;15.90;10.43;;;;;;;8.51;60.38;99444.63;4977254;28;20061;-46
2020/12/05 11:16:24;;;;;;;16.35;9.88;;;;;;;8.70;59.27;99488.25;4977623;28;20050;-47
2020/12/05 11:18:52;;;;;;;12.20;8.13;;;;;;;8.60;59.22;99505.13;4977316;28;20550;-48
2020/12/05 11:21:19;;;;;;;14.02;9.93;;;;;;;8.59;59.53;99500.84;4977555;28;20046;-46
2020/12/05 11:23:47;;;;;;;15.43;10.50;;;;;;;8.56;59.32;99486.38;4976732;28;20043;-48
2020/12/05 11:26:20;;;;;;;16.23;9.80;;;;;;;8.49;60.04;99491.34;4978810;28;20062;-47
2020/12/05 11:28:49;;;;;;;13.55;9.48;;;;;;;8.59;59.84;99496.59;4977204;28;20070;-49
2020/12/05 11:31:15;;;;;;;17.42;9.07;;;;;;;8.60;58.86;99500.03;4973064;28;20082;-47
2020/12/05 11:33:42;;;;;;;13.77;9.85;;;;;;;8.72;58.53;99505.28;4976139;28;20133;-49
2020/12/05 11:36:09;;;;;;;14.60;9.98;;;;;;;8.71;58.03;99501.03;4978633;28;20050;-43
2020/12/05 11:38:36;;;;;;;13.55;9.95;;;;;;;8.78;58.69;99499.41;4977038;28;20054;-48
2020/12/05 11:41:02;;;;;;;15.68;9.68;;;;;;;8.67;58.97;99517.97;4976509;28;20055;-44